sensor_id;sensor_type;location;lat;lon;timestamp;temperature;humidity
27759;DHT22;15148;48.972;12.794;2022-09-09T00:09:33;14.90;99.90
27759;DHT22;15148;48.972;12.794;2022-09-09T00:14:55;14.90;99.90
27759;DHT22;15148;48.972;12.794;2022-09-09T00:20:16;14.80;99.90
27759;DHT22;15148;48.972;12.794;2022-09-09T00:25:30;14.70;99.90
27759;DHT22;15148;48.972;12.794;2022-09-09T00:30:36;14.60;99.90
27759;DHT22;15148;48.972;12.794;2022-09-09T00:35:43;14.60;99.90
27759;DHT22;15148;48.972;12.794;2022-09-09T00:41:05;14.60;99.90
27759;DHT22;15148;48.972;12.794;2022-09-09T00:46:19;14.50;99.90
27759;DHT22;15148;48.972;12.794;2022-09-09T01:07:28;14.10;99.90
27759;DHT22;15148;48.972;12.794;2022-09-09T01:12:43;13.90;99.90
27759;DHT22;15148;48.972;12.794;2022-09-09T01:23:07;13.80;99.90
27759;DHT22;15148;48.972;12.794;2022-09-09T01:28:27;13.80;99.90
27759;DHT22;15148;48.972;12.794;2022-09-09T01:33:35;13.80;99.90
27759;DHT22;15148;48.972;12.794;2022-09-09T01:38:37;13.70;99.90
27759;DHT22;15148;48.972;12.794;2022-09-09T01:43:39;13.70;99.90
27759;DHT22;15148;48.972;12.794;2022-09-09T01:48:42;13.50;99.90
27759;DHT22;15148;48.972;12.794;2022-09-09T01:53:45;13.30;99.90
27759;DHT22;15148;48.972;12.794;2022-09-09T01:59:24;13.40;99.90
27759;DHT22;15148;48.972;12.794;2022-09-09T02:09:40;13.40;99.90
27759;DHT22;15148;48.972;12.794;2022-09-09T02:14:50;13.30;99.90
27759;DHT22;15148;48.972;12.794;2022-09-09T02:20:03;13.30;99.90
27759;DHT22;15148;48.972;12.794;2022-09-09T02:25:22;13.20;99.90
27759;DHT22;15148;48.972;12.794;2022-09-09T02:30:29;13.10;99.90
27759;DHT22;15148;48.972;12.794;2022-09-09T02:35:34;13.10;99.90
27759;DHT22;15148;48.972;12.794;2022-09-09T02:40:39;13.10;99.90
27759;DHT22;15148;48.972;12.794;2022-09-09T02:45:45;13.10;99.90
27759;DHT22;15148;48.972;12.794;2022-09-09T02:56:49;13.10;99.90
27759;DHT22;15148;48.972;12.794;2022-09-09T03:01:55;13.10;99.90
27759;DHT22;15148;48.972;12.794;2022-09-09T03:06:59;13.00;99.90
27759;DHT22;15148;48.972;12.794;2022-09-09T03:12:02;13.00;99.90
27759;DHT22;15148;48.972;12.794;2022-09-09T03:17:08;13.00;99.90
27759;DHT22;15148;48.972;12.794;2022-09-09T03:22:17;13.00;99.90
27759;DHT22;15148;48.972;12.794;2022-09-09T03:27:20;13.00;99.90
27759;DHT22;15148;48.972;12.794;2022-09-09T03:32:22;13.00;99.90
27759;DHT22;15148;48.972;12.794;2022-09-09T03:37:24;13.10;99.90
27759;DHT22;15148;48.972;12.794;2022-09-09T03:42:27;13.10;99.90
27759;DHT22;15148;48.972;12.794;2022-09-09T03:47:31;13.00;99.90
27759;DHT22;15148;48.972;12.794;2022-09-09T03:52:40;13.10;99.90
27759;DHT22;15148;48.972;12.794;2022-09-09T03:57:50;13.00;99.90
27759;DHT22;15148;48.972;12.794;2022-09-09T04:02:53;13.10;99.90
27759;DHT22;15148;48.972;12.794;2022-09-09T04:07:57;13.10;99.90
27759;DHT22;15148;48.972;12.794;2022-09-09T04:12:59;13.00;99.90
27759;DHT22;15148;48.972;12.794;2022-09-09T04:18:01;13.00;99.90
27759;DHT22;15148;48.972;12.794;2022-09-09T04:23:03;12.80;99.90
27759;DHT22;15148;48.972;12.794;2022-09-09T04:28:06;12.70;99.90
27759;DHT22;15148;48.972;12.794;2022-09-09T04:33:08;12.60;99.90
27759;DHT22;15148;48.972;12.794;2022-09-09T04:38:12;12.70;99.90
27759;DHT22;15148;48.972;12.794;2022-09-09T04:43:15;12.70;99.90
27759;DHT22;15148;48.972;12.794;2022-09-09T04:48:19;12.60;99.90
27759;DHT22;15148;48.972;12.794;2022-09-09T04:53:21;12.60;99.90
27759;DHT22;15148;48.972;12.794;2022-09-09T04:58:23;12.50;99.90
27759;DHT22;15148;48.972;12.794;2022-09-09T05:03:25;12.40;99.90
27759;DHT22;15148;48.972;12.794;2022-09-09T05:08:28;12.50;99.90
27759;DHT22;15148;48.972;12.794;2022-09-09T05:13:30;12.60;99.90
27759;DHT22;15148;48.972;12.794;2022-09-09T05:18:34;12.60;99.90
27759;DHT22;15148;48.972;12.794;2022-09-09T05:23:36;12.60;99.90
27759;DHT22;15148;48.972;12.794;2022-09-09T05:28:38;12.60;99.90
27759;DHT22;15148;48.972;12.794;2022-09-09T05:33:42;12.50;99.90
27759;DHT22;15148;48.972;12.794;2022-09-09T05:38:45;12.50;99.90
27759;DHT22;15148;48.972;12.794;2022-09-09T05:43:48;12.60;99.90
27759;DHT22;15148;48.972;12.794;2022-09-09T05:48:52;12.70;99.90
27759;DHT22;15148;48.972;12.794;2022-09-09T05:54:00;12.80;99.90
27759;DHT22;15148;48.972;12.794;2022-09-09T05:59:05;12.70;99.90
27759;DHT22;15148;48.972;12.794;2022-09-09T06:04:08;12.70;99.90
27759;DHT22;15148;48.972;12.794;2022-09-09T06:09:10;12.70;99.90
27759;DHT22;15148;48.972;12.794;2022-09-09T06:14:15;12.80;99.90
27759;DHT22;15148;48.972;12.794;2022-09-09T06:19:21;12.90;99.90
27759;DHT22;15148;48.972;12.794;2022-09-09T06:24:23;13.00;99.90
27759;DHT22;15148;48.972;12.794;2022-09-09T06:29:25;13.10;99.90
27759;DHT22;15148;48.972;12.794;2022-09-09T06:34:27;13.30;99.90
27759;DHT22;15148;48.972;12.794;2022-09-09T06:39:32;13.50;99.90
27759;DHT22;15148;48.972;12.794;2022-09-09T06:44:34;13.90;99.90
27759;DHT22;15148;48.972;12.794;2022-09-09T06:49:39;14.40;99.90
27759;DHT22;15148;48.972;12.794;2022-09-09T06:54:44;14.80;99.90
27759;DHT22;15148;48.972;12.794;2022-09-09T06:59:48;15.20;99.90
27759;DHT22;15148;48.972;12.794;2022-09-09T07:04:50;15.40;99.90
27759;DHT22;15148;48.972;12.794;2022-09-09T07:09:52;15.40;99.90
27759;DHT22;15148;48.972;12.794;2022-09-09T07:14:54;15.50;99.90
27759;DHT22;15148;48.972;12.794;2022-09-09T07:19:57;15.50;99.90
27759;DHT22;15148;48.972;12.794;2022-09-09T07:25:07;15.50;99.90
27759;DHT22;15148;48.972;12.794;2022-09-09T07:30:12;15.50;99.90
27759;DHT22;15148;48.972;12.794;2022-09-09T07:35:24;15.50;99.90
27759;DHT22;15148;48.972;12.794;2022-09-09T07:40:26;15.40;99.90
27759;DHT22;15148;48.972;12.794;2022-09-09T07:45:28;15.30;99.90
27759;DHT22;15148;48.972;12.794;2022-09-09T07:50:30;15.30;99.90
27759;DHT22;15148;48.972;12.794;2022-09-09T07:55:32;15.30;99.90
27759;DHT22;15148;48.972;12.794;2022-09-09T08:00:34;15.50;99.90
27759;DHT22;15148;48.972;12.794;2022-09-09T08:05:36;15.60;99.90
27759;DHT22;15148;48.972;12.794;2022-09-09T08:10:38;15.60;99.90
27759;DHT22;15148;48.972;12.794;2022-09-09T08:15:40;15.70;99.90
27759;DHT22;15148;48.972;12.794;2022-09-09T08:20:43;16.00;99.90
27759;DHT22;15148;48.972;12.794;2022-09-09T08:25:45;16.40;99.90
27759;DHT22;15148;48.972;12.794;2022-09-09T08:30:47;16.60;99.90
27759;DHT22;15148;48.972;12.794;2022-09-09T08:35:50;16.70;99.90
27759;DHT22;15148;48.972;12.794;2022-09-09T08:40:58;16.90;99.90
27759;DHT22;15148;48.972;12.794;2022-09-09T08:46:17;17.00;99.90
27759;DHT22;15148;48.972;12.794;2022-09-09T08:51:21;17.00;99.90
27759;DHT22;15148;48.972;12.794;2022-09-09T08:56:26;17.00;99.90
27759;DHT22;15148;48.972;12.794;2022-09-09T09:07:51;17.00;99.90
27759;DHT22;15148;48.972;12.794;2022-09-09T09:13:01;17.10;99.90
27759;DHT22;15148;48.972;12.794;2022-09-09T09:18:05;17.20;99.90
27759;DHT22;15148;48.972;12.794;2022-09-09T09:23:15;17.20;99.90
27759;DHT22;15148;48.972;12.794;2022-09-09T09:28:24;17.30;99.90
27759;DHT22;15148;48.972;12.794;2022-09-09T09:38:59;17.30;99.90
27759;DHT22;15148;48.972;12.794;2022-09-09T09:44:26;17.30;99.90
27759;DHT22;15148;48.972;12.794;2022-09-09T09:49:30;17.30;99.90
27759;DHT22;15148;48.972;12.794;2022-09-09T09:54:37;17.30;99.90
27759;DHT22;15148;48.972;12.794;2022-09-09T09:59:39;17.20;99.90
27759;DHT22;15148;48.972;12.794;2022-09-09T10:05:02;17.20;99.90
27759;DHT22;15148;48.972;12.794;2022-09-09T10:10:20;17.10;99.90
27759;DHT22;15148;48.972;12.794;2022-09-09T10:20:48;17.20;99.90
27759;DHT22;15148;48.972;12.794;2022-09-09T10:36:49;17.00;99.90
27759;DHT22;15148;48.972;12.794;2022-09-09T10:42:01;16.90;99.90
27759;DHT22;15148;48.972;12.794;2022-09-09T10:52:40;16.90;99.90
27759;DHT22;15148;48.972;12.794;2022-09-09T10:57:50;16.80;99.90
27759;DHT22;15148;48.972;12.794;2022-09-09T11:02:59;16.80;99.90
27759;DHT22;15148;48.972;12.794;2022-09-09T11:08:06;16.70;99.90
27759;DHT22;15148;48.972;12.794;2022-09-09T11:13:20;16.60;99.90
27759;DHT22;15148;48.972;12.794;2022-09-09T11:18:24;16.60;99.90
27759;DHT22;15148;48.972;12.794;2022-09-09T11:23:49;16.60;99.90
27759;DHT22;15148;48.972;12.794;2022-09-09T11:39:38;16.80;99.90
27759;DHT22;15148;48.972;12.794;2022-09-09T11:44:42;16.90;99.90
27759;DHT22;15148;48.972;12.794;2022-09-09T11:49:44;16.90;99.90
27759;DHT22;15148;48.972;12.794;2022-09-09T11:54:48;16.90;99.90
27759;DHT22;15148;48.972;12.794;2022-09-09T11:59:51;17.00;99.90
27759;DHT22;15148;48.972;12.794;2022-09-09T12:05:07;17.10;99.90
27759;DHT22;15148;48.972;12.794;2022-09-09T12:10:29;17.30;99.90
27759;DHT22;15148;48.972;12.794;2022-09-09T12:15:31;17.50;99.90
27759;DHT22;15148;48.972;12.794;2022-09-09T12:20:35;17.60;99.90
27759;DHT22;15148;48.972;12.794;2022-09-09T12:31:00;17.70;99.90
27759;DHT22;15148;48.972;12.794;2022-09-09T12:36:06;17.70;99.90
27759;DHT22;15148;48.972;12.794;2022-09-09T12:41:23;17.70;99.90
27759;DHT22;15148;48.972;12.794;2022-09-09T12:46:45;17.70;99.90
27759;DHT22;15148;48.972;12.794;2022-09-09T12:51:48;17.80;99.90
27759;DHT22;15148;48.972;12.794;2022-09-09T12:56:50;17.80;99.90
27759;DHT22;15148;48.972;12.794;2022-09-09T13:01:59;18.20;99.90
27759;DHT22;15148;48.972;12.794;2022-09-09T13:07:08;18.60;99.90
27759;DHT22;15148;48.972;12.794;2022-09-09T13:12:15;19.00;99.90
27759;DHT22;15148;48.972;12.794;2022-09-09T13:17:23;19.00;99.90
27759;DHT22;15148;48.972;12.794;2022-09-09T13:22:34;19.10;99.90
27759;DHT22;15148;48.972;12.794;2022-09-09T13:27:39;19.20;99.90
27759;DHT22;15148;48.972;12.794;2022-09-09T13:32:41;19.20;99.90
27759;DHT22;15148;48.972;12.794;2022-09-09T13:37:43;19.20;99.90
27759;DHT22;15148;48.972;12.794;2022-09-09T13:42:45;19.40;99.90
27759;DHT22;15148;48.972;12.794;2022-09-09T13:47:47;19.40;99.90
27759;DHT22;15148;48.972;12.794;2022-09-09T13:52:56;19.40;99.90
27759;DHT22;15148;48.972;12.794;2022-09-09T13:58:02;19.30;99.90
27759;DHT22;15148;48.972;12.794;2022-09-09T14:03:04;19.30;99.90
27759;DHT22;15148;48.972;12.794;2022-09-09T14:08:07;19.20;99.90
27759;DHT22;15148;48.972;12.794;2022-09-09T14:13:09;19.00;99.90
27759;DHT22;15148;48.972;12.794;2022-09-09T14:18:13;19.00;99.90
27759;DHT22;15148;48.972;12.794;2022-09-09T14:23:15;19.00;99.90
27759;DHT22;15148;48.972;12.794;2022-09-09T14:28:17;18.90;99.90
27759;DHT22;15148;48.972;12.794;2022-09-09T14:33:40;18.80;99.90
27759;DHT22;15148;48.972;12.794;2022-09-09T14:38:42;18.70;99.90
27759;DHT22;15148;48.972;12.794;2022-09-09T14:43:45;18.60;99.90
27759;DHT22;15148;48.972;12.794;2022-09-09T14:48:47;18.50;99.90
27759;DHT22;15148;48.972;12.794;2022-09-09T14:53:57;18.50;99.90
27759;DHT22;15148;48.972;12.794;2022-09-09T14:58:59;18.40;99.90
27759;DHT22;15148;48.972;12.794;2022-09-09T15:04:04;18.30;99.90
27759;DHT22;15148;48.972;12.794;2022-09-09T15:09:06;18.30;99.90
27759;DHT22;15148;48.972;12.794;2022-09-09T15:14:09;18.30;99.90
27759;DHT22;15148;48.972;12.794;2022-09-09T15:19:11;18.30;99.90
27759;DHT22;15148;48.972;12.794;2022-09-09T15:24:13;18.30;99.90
27759;DHT22;15148;48.972;12.794;2022-09-09T15:29:15;18.20;99.90
27759;DHT22;15148;48.972;12.794;2022-09-09T15:34:18;18.20;99.90
27759;DHT22;15148;48.972;12.794;2022-09-09T15:39:19;18.30;99.90
27759;DHT22;15148;48.972;12.794;2022-09-09T15:44:21;18.30;99.90
27759;DHT22;15148;48.972;12.794;2022-09-09T15:49:26;18.30;99.90
27759;DHT22;15148;48.972;12.794;2022-09-09T15:54:31;18.20;99.90
27759;DHT22;15148;48.972;12.794;2022-09-09T15:59:35;18.10;99.90
27759;DHT22;15148;48.972;12.794;2022-09-09T16:04:37;18.00;99.90
27759;DHT22;15148;48.972;12.794;2022-09-09T16:09:39;17.90;99.90
27759;DHT22;15148;48.972;12.794;2022-09-09T16:14:41;17.90;99.90
27759;DHT22;15148;48.972;12.794;2022-09-09T16:19:43;17.70;99.90
27759;DHT22;15148;48.972;12.794;2022-09-09T16:24:44;17.70;99.90
27759;DHT22;15148;48.972;12.794;2022-09-09T16:29:46;17.60;99.90
27759;DHT22;15148;48.972;12.794;2022-09-09T16:34:48;17.60;99.90
27759;DHT22;15148;48.972;12.794;2022-09-09T16:39:50;17.60;99.90
27759;DHT22;15148;48.972;12.794;2022-09-09T16:44:52;17.50;99.90
27759;DHT22;15148;48.972;12.794;2022-09-09T16:49:54;17.40;99.90
27759;DHT22;15148;48.972;12.794;2022-09-09T16:54:57;17.40;99.90
27759;DHT22;15148;48.972;12.794;2022-09-09T16:59:58;17.30;99.90
27759;DHT22;15148;48.972;12.794;2022-09-09T17:05:00;17.30;99.90
27759;DHT22;15148;48.972;12.794;2022-09-09T17:10:03;17.20;99.90
27759;DHT22;15148;48.972;12.794;2022-09-09T17:15:05;17.20;99.90
27759;DHT22;15148;48.972;12.794;2022-09-09T17:20:07;17.20;99.90
27759;DHT22;15148;48.972;12.794;2022-09-09T17:25:11;17.20;99.90
27759;DHT22;15148;48.972;12.794;2022-09-09T17:30:13;17.10;99.90
27759;DHT22;15148;48.972;12.794;2022-09-09T17:35:15;17.10;99.90
27759;DHT22;15148;48.972;12.794;2022-09-09T17:40:17;17.00;99.90
27759;DHT22;15148;48.972;12.794;2022-09-09T17:45:19;17.00;99.90
27759;DHT22;15148;48.972;12.794;2022-09-09T17:50:21;16.90;99.90
27759;DHT22;15148;48.972;12.794;2022-09-09T17:55:22;16.80;99.90
27759;DHT22;15148;48.972;12.794;2022-09-09T18:00:24;16.80;99.90
27759;DHT22;15148;48.972;12.794;2022-09-09T18:05:26;16.70;99.90
27759;DHT22;15148;48.972;12.794;2022-09-09T18:10:28;16.60;99.90
27759;DHT22;15148;48.972;12.794;2022-09-09T18:15:29;16.50;99.90
27759;DHT22;15148;48.972;12.794;2022-09-09T18:21:00;16.40;99.90
27759;DHT22;15148;48.972;12.794;2022-09-09T18:26:10;16.30;99.90
27759;DHT22;15148;48.972;12.794;2022-09-09T18:31:14;16.20;99.90
27759;DHT22;15148;48.972;12.794;2022-09-09T18:36:25;16.10;99.90
27759;DHT22;15148;48.972;12.794;2022-09-09T18:41:28;16.10;99.90
27759;DHT22;15148;48.972;12.794;2022-09-09T18:46:32;16.00;99.90
27759;DHT22;15148;48.972;12.794;2022-09-09T18:51:35;15.90;99.90
27759;DHT22;15148;48.972;12.794;2022-09-09T18:56:37;15.90;99.90
27759;DHT22;15148;48.972;12.794;2022-09-09T19:01:40;15.80;99.90
27759;DHT22;15148;48.972;12.794;2022-09-09T19:06:44;15.70;99.90
27759;DHT22;15148;48.972;12.794;2022-09-09T19:11:47;15.60;99.90
27759;DHT22;15148;48.972;12.794;2022-09-09T19:16:49;15.50;99.90
27759;DHT22;15148;48.972;12.794;2022-09-09T19:21:51;15.40;99.90
27759;DHT22;15148;48.972;12.794;2022-09-09T19:26:56;15.30;99.90
27759;DHT22;15148;48.972;12.794;2022-09-09T19:31:59;15.30;99.90
27759;DHT22;15148;48.972;12.794;2022-09-09T19:37:22;15.30;99.90
27759;DHT22;15148;48.972;12.794;2022-09-09T19:42:24;15.40;99.90
27759;DHT22;15148;48.972;12.794;2022-09-09T19:47:26;15.40;99.90
27759;DHT22;15148;48.972;12.794;2022-09-09T19:52:28;15.40;99.90
27759;DHT22;15148;48.972;12.794;2022-09-09T19:57:30;15.40;99.90
27759;DHT22;15148;48.972;12.794;2022-09-09T20:02:31;15.50;99.90
27759;DHT22;15148;48.972;12.794;2022-09-09T20:07:34;15.50;99.90
27759;DHT22;15148;48.972;12.794;2022-09-09T20:12:36;15.50;99.90
27759;DHT22;15148;48.972;12.794;2022-09-09T20:17:37;15.50;99.90
27759;DHT22;15148;48.972;12.794;2022-09-09T20:22:39;15.50;99.90
27759;DHT22;15148;48.972;12.794;2022-09-09T20:27:41;15.40;99.90
27759;DHT22;15148;48.972;12.794;2022-09-09T20:32:43;15.40;99.90
27759;DHT22;15148;48.972;12.794;2022-09-09T20:37:45;15.40;99.90
27759;DHT22;15148;48.972;12.794;2022-09-09T20:42:47;15.30;99.90
27759;DHT22;15148;48.972;12.794;2022-09-09T20:47:49;15.20;99.90
27759;DHT22;15148;48.972;12.794;2022-09-09T20:52:53;15.20;99.90
27759;DHT22;15148;48.972;12.794;2022-09-09T20:57:56;15.20;99.90
27759;DHT22;15148;48.972;12.794;2022-09-09T21:02:59;15.10;99.90
27759;DHT22;15148;48.972;12.794;2022-09-09T21:08:00;15.10;99.90
27759;DHT22;15148;48.972;12.794;2022-09-09T21:13:03;14.90;99.90
27759;DHT22;15148;48.972;12.794;2022-09-09T21:18:05;14.90;99.90
27759;DHT22;15148;48.972;12.794;2022-09-09T21:23:09;14.90;99.90
27759;DHT22;15148;48.972;12.794;2022-09-09T21:28:12;14.90;99.90
27759;DHT22;15148;48.972;12.794;2022-09-09T21:33:14;14.90;99.90
27759;DHT22;15148;48.972;12.794;2022-09-09T21:38:21;14.80;99.90
27759;DHT22;15148;48.972;12.794;2022-09-09T21:43:23;14.80;99.90
27759;DHT22;15148;48.972;12.794;2022-09-09T21:48:24;14.80;99.90
27759;DHT22;15148;48.972;12.794;2022-09-09T21:53:26;14.70;99.90
27759;DHT22;15148;48.972;12.794;2022-09-09T21:58:28;14.70;99.90
27759;DHT22;15148;48.972;12.794;2022-09-09T22:03:30;14.70;99.90
27759;DHT22;15148;48.972;12.794;2022-09-09T22:08:32;14.70;99.90
27759;DHT22;15148;48.972;12.794;2022-09-09T22:13:36;14.70;99.90
27759;DHT22;15148;48.972;12.794;2022-09-09T22:18:39;14.60;99.90
27759;DHT22;15148;48.972;12.794;2022-09-09T22:23:41;14.60;99.90
27759;DHT22;15148;48.972;12.794;2022-09-09T22:28:43;14.50;99.90
27759;DHT22;15148;48.972;12.794;2022-09-09T22:33:46;14.40;99.90
27759;DHT22;15148;48.972;12.794;2022-09-09T22:38:48;14.30;99.90
27759;DHT22;15148;48.972;12.794;2022-09-09T22:43:50;14.20;99.90
27759;DHT22;15148;48.972;12.794;2022-09-09T22:48:52;14.20;99.90
27759;DHT22;15148;48.972;12.794;2022-09-09T22:53:54;14.20;99.90
27759;DHT22;15148;48.972;12.794;2022-09-09T22:58:57;14.20;99.90
27759;DHT22;15148;48.972;12.794;2022-09-09T23:03:59;14.30;99.90
27759;DHT22;15148;48.972;12.794;2022-09-09T23:09:03;14.30;99.90
27759;DHT22;15148;48.972;12.794;2022-09-09T23:14:06;14.40;99.90
27759;DHT22;15148;48.972;12.794;2022-09-09T23:19:13;14.40;99.90
27759;DHT22;15148;48.972;12.794;2022-09-09T23:24:16;14.40;99.90
27759;DHT22;15148;48.972;12.794;2022-09-09T23:29:20;14.50;99.90
27759;DHT22;15148;48.972;12.794;2022-09-09T23:34:22;14.50;99.90
27759;DHT22;15148;48.972;12.794;2022-09-09T23:39:24;14.50;99.90
27759;DHT22;15148;48.972;12.794;2022-09-09T23:44:26;14.50;99.90
27759;DHT22;15148;48.972;12.794;2022-09-09T23:49:28;14.60;99.90
27759;DHT22;15148;48.972;12.794;2022-09-09T23:54:30;14.50;99.90
27759;DHT22;15148;48.972;12.794;2022-09-09T23:59:33;14.40;99.90
